Time;durP1;ratioP1;P1;durP2;ratioP2;P2;SDS_P1;SDS_P2;PMS_P1;PMS_P2;Temp;Humidity;BMP_temperature;BMP_pressure;BME280_temperature;BME280_humidity;BME280_pressure;Samples;Min_cycle;Max_cycle;Signal;HPM_P1;HPM_P2
2023/08/05 00:01:30;;;;;;;0.80;0.80;;;;;;;19.24;70.97;98700.50;5176693;27;43516;-85
2023/08/05 00:03:58;;;;;;;0.77;0.77;;;;;;;19.37;71.04;98722.44;5159360;27;42369;-83
2023/08/05 00:06:26;;;;;;;1.00;1.00;;;;;;;19.27;70.89;98705.56;5160994;27;40300;-83
2023/08/05 00:08:54;;;;;;;0.67;0.67;;;;;;;19.27;70.96;98702.88;5179790;27;40873;-86
2023/08/05 00:11:21;;;;;;;0.87;0.87;;;;;;;19.35;71.26;98716.34;5179433;27;41948;-83
2023/08/05 00:13:49;;;;;;;0.80;0.80;;;;;;;19.26;71.50;98701.19;5179919;27;42368;-85
2023/08/05 00:16:17;;;;;;;0.93;0.90;;;;;;;19.24;71.24;98700.50;5161965;27;40201;-85
2023/08/05 00:18:44;;;;;;;0.80;0.80;;;;;;;19.21;71.07;98706.16;5162090;27;41742;-85
2023/08/05 00:21:13;;;;;;;1.20;1.10;;;;;;;19.13;72.00;98692.69;5161920;27;42383;-83
2023/08/05 00:23:41;;;;;;;1.37;1.20;;;;;;;19.24;71.70;98706.69;5179919;27;42458;-83
2023/08/05 00:26:08;;;;;;;0.67;0.67;;;;;;;19.21;71.60;98709.69;5161546;27;39990;-85
2023/08/05 00:28:36;;;;;;;1.10;1.00;;;;;;;19.13;71.50;98703.41;5161308;27;40671;-86
2023/08/05 00:31:08;;;;;;;1.10;1.00;;;;;;;19.09;71.63;98693.97;5161651;27;42804;-84
2023/08/05 00:33:35;;;;;;;0.80;0.80;;;;;;;19.08;71.61;98705.69;5179538;27;41117;-86
2023/08/05 00:36:03;;;;;;;1.07;0.90;;;;;;;19.02;71.96;98705.34;5178897;27;39536;-86
2023/08/05 00:38:32;;;;;;;0.83;0.83;;;;;;;18.92;72.90;98685.75;5162135;27;40705;-84
2023/08/05 00:41:00;;;;;;;1.23;1.07;;;;;;;18.99;72.70;98697.56;5179852;27;42972;-86
2023/08/05 00:43:27;;;;;;;0.90;0.90;;;;;;;19.03;72.85;98711.53;5180659;27;42512;-85
2023/08/05 00:45:56;;;;;;;0.83;0.83;;;;;;;18.97;73.17;98694.19;5180605;27;41100;-86
2023/08/05 00:48:25;;;;;;;1.10;1.00;;;;;;;18.98;73.12;98706.63;5162993;27;40738;-83
2023/08/05 00:50:53;;;;;;;1.20;1.10;;;;;;;18.92;73.43;98701.00;5145742;27;41927;-85
2023/08/05 00:53:23;;;;;;;1.23;1.13;;;;;;;18.94;73.18;98694.50;5163188;27;42467;-83
2023/08/05 00:55:53;;;;;;;2.17;1.20;;;;;;;18.83;73.09;98681.31;5180603;27;41016;-84
2023/08/05 00:58:21;;;;;;;1.30;1.20;;;;;;;18.91;73.31;98694.81;5180216;27;41503;-85
2023/08/05 01:00:49;;;;;;;0.90;0.90;;;;;;;18.89;74.21;98699.50;5162644;27;41731;-87
2023/08/05 01:03:17;;;;;;;1.20;1.10;;;;;;;18.76;73.80;98674.88;5162858;27;42223;-84
2023/08/05 01:05:45;;;;;;;1.20;1.10;;;;;;;18.76;74.03;98677.56;5180323;27;40961;-82
2023/08/05 01:08:13;;;;;;;1.10;1.00;;;;;;;18.75;73.85;98677.69;5162792;27;40607;-87
2023/08/05 01:10:41;;;;;;;1.17;1.07;;;;;;;18.75;73.51;98673.19;5160873;27;42031;-84
2023/08/05 01:13:10;;;;;;;3.20;1.10;;;;;;;18.83;73.59;98686.66;5161500;27;41174;-86
2023/08/05 01:15:38;;;;;;;1.97;1.40;;;;;;;18.77;73.93;98673.03;5179110;27;41145;-85
2023/08/05 01:18:08;;;;;;;1.13;1.10;;;;;;;18.67;73.76;98648.13;5160161;27;41867;-83
2023/08/05 01:20:39;;;;;;;1.20;1.10;;;;;;;18.70;73.62;98659.38;5161298;27;43016;-83
2023/08/05 01:23:13;;;;;;;1.40;1.30;;;;;;;18.69;73.92;98657.69;5161223;27;40940;-85
2023/08/05 01:25:43;;;;;;;0.90;0.90;;;;;;;18.78;73.95;98683.63;5161738;27;40357;-85
2023/08/05 01:28:12;;;;;;;1.30;1.13;;;;;;;18.78;73.93;98688.13;5178976;27;41568;-84
2023/08/05 01:30:42;;;;;;;1.10;1.00;;;;;;;18.67;73.65;98664.22;5185983;27;41771;-83
2023/08/05 01:33:12;;;;;;;0.90;0.90;;;;;;;18.67;73.67;98674.94;5166366;27;41866;-84
2023/08/05 01:35:40;;;;;;;1.40;1.30;;;;;;;18.63;74.11;98666.34;5161108;27;41327;-84
2023/08/05 01:38:08;;;;;;;1.33;1.13;;;;;;;18.64;73.92;98676.09;5161108;27;40713;-86
2023/08/05 01:40:35;;;;;;;1.00;0.90;;;;;;;18.59;74.01;98670.31;5161623;27;41831;-84
2023/08/05 01:43:04;;;;;;;1.10;1.00;;;;;;;18.66;74.20;98690.19;5162029;27;41162;-85
2023/08/05 01:45:32;;;;;;;1.30;1.20;;;;;;;18.61;74.10;98687.09;5162375;27;41281;-84
2023/08/05 01:47:59;;;;;;;1.03;0.90;;;;;;;18.59;74.33;98692.63;5179722;27;40577;-83
2023/08/05 01:50:27;;;;;;;1.30;1.20;;;;;;;18.63;74.20;98703.91;5161856;27;42768;-82
2023/08/05 01:52:54;;;;;;;1.60;1.07;;;;;;;18.73;73.70;98710.03;5179682;27;42588;-82
2023/08/05 01:55:22;;;;;;;1.60;1.50;;;;;;;18.61;73.98;98689.78;5161538;27;40999;-84
2023/08/05 01:57:49;;;;;;;1.20;1.10;;;;;;;18.75;73.81;98710.75;5161692;27;40773;-84
2023/08/05 02:00:20;;;;;;;0.97;0.87;;;;;;;18.69;73.69;98705.13;5161559;27;42823;-85
2023/08/05 02:02:48;;;;;;;1.17;1.07;;;;;;;18.63;73.46;98691.34;5176299;27;42976;-82
2023/08/05 02:05:15;;;;;;;1.30;1.00;;;;;;;18.64;73.60;98692.19;5179172;27;40948;-83
2023/08/05 02:07:43;;;;;;;1.10;1.10;;;;;;;18.55;73.73;98674.25;5179026;27;41670;-83
2023/08/05 02:10:11;;;;;;;1.67;1.03;;;;;;;18.64;73.52;98693.03;5159706;27;43242;-85
2023/08/05 02:12:39;;;;;;;0.83;0.77;;;;;;;18.55;73.33;98676.94;5196661;27;43192;-84
2023/08/05 02:15:07;;;;;;;1.47;1.30;;;;;;;18.64;73.41;98697.53;5160623;27;39945;-83
2023/08/05 02:17:38;;;;;;;0.80;0.77;;;;;;;18.74;73.34;98700.16;5178375;27;41364;-86
2023/08/05 02:20:08;;;;;;;1.10;1.03;;;;;;;18.60;73.46;98675.53;5177764;27;43730;-87
2023/08/05 02:22:35;;;;;;;1.00;1.00;;;;;;;18.60;73.62;98667.47;5160326;27;41209;-86
2023/08/05 02:25:03;;;;;;;1.10;1.00;;;;;;;18.66;73.94;98684.81;5177782;27;41744;-84
2023/08/05 02:27:31;;;;;;;0.93;0.90;;;;;;;18.64;73.75;98681.44;5160185;27;40943;-82
2023/08/05 02:30:00;;;;;;;1.13;1.03;;;;;;;18.50;73.78;98652.41;5177137;27;42857;-84
2023/08/05 02:32:28;;;;;;;0.90;0.90;;;;;;;18.47;74.20;98658.06;5177816;27;43261;-85
2023/08/05 02:34:57;;;;;;;1.07;0.97;;;;;;;18.54;74.06;98659.19;5159821;27;40120;-85
2023/08/05 02:37:24;;;;;;;1.47;1.37;;;;;;;18.40;73.98;98646.28;5177623;27;40539;-84
2023/08/05 02:39:52;;;;;;;1.17;1.03;;;;;;;18.48;74.03;98663.28;5159642;27;41731;-85
2023/08/05 02:42:20;;;;;;;1.50;0.90;;;;;;;18.47;74.02;98666.13;5160846;27;42334;-85
2023/08/05 02:44:47;;;;;;;0.87;0.87;;;;;;;18.46;74.01;98661.75;5160960;27;40437;-83
2023/08/05 02:47:17;;;;;;;1.03;0.93;;;;;;;18.29;74.13;98629.41;5161003;27;40661;-85
2023/08/05 02:49:45;;;;;;;1.67;1.33;;;;;;;18.40;74.75;98652.50;5161290;27;42032;-83
2023/08/05 02:52:14;;;;;;;1.07;0.93;;;;;;;18.26;74.53;98640.44;5160904;27;42360;-84
2023/08/05 02:54:41;;;;;;;1.23;1.13;;;;;;;18.29;74.59;98653.53;5178357;27;41133;-83
2023/08/05 02:57:09;;;;;;;2.10;1.70;;;;;;;18.04;74.73;98616.72;5160719;27;40679;-85
2023/08/05 02:59:37;;;;;;;1.20;1.10;;;;;;;18.12;74.83;98629.34;5178466;27;42852;-85
2023/08/05 03:02:04;;;;;;;1.67;0.80;;;;;;;18.03;74.71;98633.78;5178121;27;42480;-85
2023/08/05 03:04:32;;;;;;;1.00;1.00;;;;;;;18.04;74.92;98635.47;5161036;27;40814;-84
2023/08/05 03:07:00;;;;;;;0.93;0.93;;;;;;;17.87;74.96;98612.97;5160786;27;40727;-86
2023/08/05 03:09:28;;;;;;;1.10;1.00;;;;;;;17.81;75.00;98612.69;5196182;27;42831;-85
2023/08/05 03:11:56;;;;;;;1.27;1.17;;;;;;;17.83;75.11;98642.88;5195034;27;42365;-82
2023/08/05 03:14:23;;;;;;;1.20;1.10;;;;;;;17.69;75.39;98619.22;5159476;27;39921;-85
2023/08/05 03:16:51;;;;;;;1.20;1.10;;;;;;;17.71;75.60;98620.78;5158881;27;40671;-85
2023/08/05 03:19:21;;;;;;;1.30;1.20;;;;;;;17.51;75.76;98601.22;5142442;27;43205;-85
2023/08/05 03:21:51;;;;;;;1.20;1.10;;;;;;;17.46;75.95;98606.16;5159257;27;42346;-84
2023/08/05 03:24:20;;;;;;;1.20;1.10;;;;;;;17.41;75.86;98604.94;5176913;27;40889;-83
2023/08/05 03:26:53;;;;;;;1.20;1.10;;;;;;;17.35;75.98;98618.88;5158969;27;40688;-85
2023/08/05 03:29:21;;;;;;;1.07;0.97;;;;;;;17.30;75.92;98619.31;5158579;27;43370;-84
2023/08/05 03:31:50;;;;;;;0.97;0.90;;;;;;;17.23;76.48;98612.84;5159158;27;41273;-83
2023/08/05 03:34:20;;;;;;;1.37;1.10;;;;;;;17.21;76.11;98629.03;5177014;27;41790;-85
2023/08/05 03:36:48;;;;;;;0.93;0.90;;;;;;;17.15;75.95;98642.16;5176380;27;41795;-85
2023/08/05 03:39:16;;;;;;;1.17;0.97;;;;;;;16.99;76.16;98628.50;5159039;27;42144;-83
2023/08/05 03:41:45;;;;;;;0.80;0.80;;;;;;;17.00;76.15;98648.94;5163130;27;42309;-83
2023/08/05 03:44:13;;;;;;;1.07;1.07;;;;;;;17.08;75.95;98683.84;5164358;27;40670;-86
2023/08/05 03:46:41;;;;;;;1.40;1.20;;;;;;;17.11;76.22;98699.63;5164474;27;40720;-85
2023/08/05 03:49:09;;;;;;;1.23;1.00;;;;;;;17.05;76.17;98693.00;5164376;27;43278;-83
2023/08/05 03:51:37;;;;;;;1.20;1.10;;;;;;;16.88;76.10;98662.44;5182320;27;41208;-85
2023/08/05 03:54:07;;;;;;;1.20;1.10;;;;;;;16.97;76.63;98675.94;5165194;27;39944;-85
2023/08/05 03:56:35;;;;;;;1.47;1.13;;;;;;;17.07;76.43;98698.19;5164845;27;40606;-83
2023/08/05 03:59:04;;;;;;;1.30;1.20;;;;;;;16.96;76.29;98671.59;5165205;27;43123;-86
2023/08/05 04:01:34;;;;;;;1.20;0.90;;;;;;;16.97;76.45;98681.31;5163354;27;41313;-82
2023/08/05 04:04:02;;;;;;;1.07;1.00;;;;;;;17.03;76.42;98691.47;5163678;27;41873;-85
2023/08/05 04:06:31;;;;;;;0.97;0.97;;;;;;;16.87;76.47;98671.44;5163045;27;41013;-85
2023/08/05 04:08:59;;;;;;;0.80;0.80;;;;;;;17.03;76.52;98703.00;5162669;27;42826;-83
2023/08/05 04:11:27;;;;;;;3.70;0.90;;;;;;;17.04;76.62;98703.84;5161334;27;41372;-84
2023/08/05 04:13:58;;;;;;;1.47;1.10;;;;;;;16.96;77.29;98690.31;5180032;27;39908;-83
2023/08/05 04:16:27;;;;;;;1.60;1.20;;;;;;;17.03;77.19;98702.16;5162060;27;40727;-84
2023/08/05 04:18:56;;;;;;;1.00;0.90;;;;;;;17.01;76.73;98701.44;5162029;27;41900;-83
2023/08/05 04:21:28;;;;;;;0.77;0.77;;;;;;;17.09;76.72;98713.13;5179642;27;41495;-85
2023/08/05 04:23:55;;;;;;;1.00;0.90;;;;;;;17.09;76.90;98712.28;5176660;27;41965;-85
2023/08/05 04:26:24;;;;;;;1.07;0.97;;;;;;;17.00;76.63;98702.44;5161708;27;41072;-85
2023/08/05 04:28:51;;;;;;;0.80;0.80;;;;;;;17.02;77.07;98709.34;5161957;27;42822;-83
2023/08/05 04:31:19;;;;;;;1.37;1.27;;;;;;;17.06;76.76;98715.25;5161918;27;41443;-82
2023/08/05 04:33:48;;;;;;;1.20;1.10;;;;;;;17.18;76.98;98727.53;5179644;27;40564;-85
2023/08/05 04:36:17;;;;;;;0.80;0.70;;;;;;;17.10;77.01;98722.84;5161763;27;42398;-83
2023/08/05 04:38:44;;;;;;;0.83;0.83;;;;;;;17.27;76.76;98748.09;5198291;27;42726;-83
2023/08/05 04:41:12;;;;;;;1.17;1.03;;;;;;;17.19;76.67;98729.19;5179816;27;41578;-83
2023/08/05 04:43:39;;;;;;;0.73;0.73;;;;;;;17.31;77.13;98744.13;5163079;27;39942;-85
2023/08/05 04:46:07;;;;;;;1.20;1.10;;;;;;;17.38;77.46;98736.38;5162815;27;40503;-82
2023/08/05 04:48:34;;;;;;;1.20;1.10;;;;;;;17.31;77.31;98727.25;5182873;27;43570;-82
2023/08/05 04:51:02;;;;;;;0.87;0.87;;;;;;;17.38;77.15;98734.56;5171142;27;41721;-82
2023/08/05 04:53:31;;;;;;;1.10;1.00;;;;;;;17.35;77.44;98724.13;5167595;27;40030;-83
2023/08/05 04:55:58;;;;;;;0.77;0.77;;;;;;;17.55;77.36;98741.88;5199705;27;41727;-82
2023/08/05 04:58:25;;;;;;;1.13;1.03;;;;;;;17.55;77.63;98727.66;5163181;27;44653;-83
2023/08/05 05:00:56;;;;;;;1.00;0.90;;;;;;;17.72;77.37;98747.50;5180593;27;42004;-83
2023/08/05 05:03:25;;;;;;;1.20;1.10;;;;;;;17.70;77.48;98733.41;5175576;27;41072;-85
2023/08/05 05:05:53;;;;;;;0.80;0.80;;;;;;;17.75;77.52;98725.81;5179090;27;41631;-84
2023/08/05 05:08:22;;;;;;;1.20;1.10;;;;;;;17.89;77.30;98739.59;5161908;27;41679;-82
2023/08/05 05:10:51;;;;;;;1.20;1.07;;;;;;;17.76;77.46;98714.94;5161994;27;43034;-84
2023/08/05 05:13:18;;;;;;;1.23;1.13;;;;;;;17.95;77.24;98744.34;5161621;27;40673;-84
2023/08/05 05:15:47;;;;;;;1.07;1.00;;;;;;;17.90;76.92;98725.22;5161749;27;40661;-84
2023/08/05 05:18:15;;;;;;;1.53;1.10;;;;;;;17.92;77.01;98731.28;5161545;27;42972;-82
2023/08/05 05:20:42;;;;;;;0.80;0.80;;;;;;;18.05;76.92;98752.34;5161324;27;42254;-85
2023/08/05 05:23:10;;;;;;;1.13;1.00;;;;;;;17.99;76.99;98741.38;5178569;27;40280;-82
2023/08/05 05:25:37;;;;;;;0.87;0.87;;;;;;;18.12;76.72;98753.47;5160809;27;42524;-84
2023/08/05 05:28:06;;;;;;;0.87;0.73;;;;;;;18.16;76.70;98751.38;5160699;27;41544;-85
2023/08/05 05:30:36;;;;;;;0.90;0.80;;;;;;;18.11;76.96;98734.88;5161439;27;41275;-86
2023/08/05 05:33:03;;;;;;;1.00;0.90;;;;;;;18.22;77.11;98751.59;5161189;27;41059;-83
2023/08/05 05:35:31;;;;;;;3.20;1.20;;;;;;;18.22;76.93;98740.88;5160960;27;42042;-83
2023/08/05 05:37:58;;;;;;;1.30;1.20;;;;;;;18.27;77.17;98738.63;5160973;27;42807;-87
2023/08/05 05:40:26;;;;;;;1.13;0.97;;;;;;;18.36;76.67;98741.41;5161630;27;41407;-89
2023/08/05 05:42:54;;;;;;;0.73;0.73;;;;;;;18.43;76.59;98727.25;5162007;27;40244;-87
2023/08/05 05:45:23;;;;;;;1.47;1.20;;;;;;;18.52;76.51;98730.91;5161751;27;41690;-85
2023/08/05 05:47:50;;;;;;;1.13;1.00;;;;;;;18.60;76.21;98722.97;5179381;27;41828;-85
2023/08/05 05:50:19;;;;;;;1.70;1.10;;;;;;;18.75;75.97;98729.53;5161606;27;41278;-85
2023/08/05 05:52:48;;;;;;;1.10;0.80;;;;;;;18.72;75.47;98721.75;5179270;27;39794;-86
2023/08/05 05:55:16;;;;;;;0.97;0.90;;;;;;;18.80;75.03;98724.53;5161610;27;40757;-85
2023/08/05 05:57:45;;;;;;;1.07;1.03;;;;;;;18.79;75.26;98708.59;5179365;27;42976;-84
2023/08/05 06:00:14;;;;;;;1.10;1.03;;;;;;;18.90;74.85;98713.75;5144682;27;41593;-83
2023/08/05 06:02:43;;;;;;;1.07;1.00;;;;;;;18.93;74.71;98708.06;5178374;27;41163;-82
2023/08/05 06:05:11;;;;;;;1.03;1.03;;;;;;;18.94;74.52;98699.88;5178921;27;41177;-83
2023/08/05 06:07:39;;;;;;;0.73;0.73;;;;;;;18.82;74.58;98668.88;5179053;27;42753;-84
2023/08/05 06:10:08;;;;;;;1.07;0.97;;;;;;;18.98;74.46;98701.25;5160184;27;41301;-85
2023/08/05 06:12:37;;;;;;;0.60;0.60;;;;;;;18.90;74.72;98687.78;5160221;27;40000;-86
2023/08/05 06:15:07;;;;;;;0.80;0.80;;;;;;;18.91;74.52;98693.97;5160059;27;42077;-86
2023/08/05 06:17:35;;;;;;;0.60;0.60;;;;;;;18.69;74.32;98656.84;5159819;27;43146;-82
2023/08/05 06:20:04;;;;;;;0.80;0.80;;;;;;;18.96;74.17;98692.50;5160065;27;41125;-82
2023/08/05 06:22:32;;;;;;;0.60;0.60;;;;;;;19.20;73.61;98709.84;5177816;27;42041;-86
2023/08/05 06:24:59;;;;;;;0.80;0.80;;;;;;;19.30;73.42;98684.59;5160112;27;40813;-84
2023/08/05 06:27:27;;;;;;;0.90;0.90;;;;;;;19.52;72.74;98699.44;5177838;27;42637;-83
2023/08/05 06:29:54;;;;;;;0.90;0.90;;;;;;;19.81;72.63;98698.25;5159779;27;41484;-85
2023/08/05 06:32:22;;;;;;;1.20;0.77;;;;;;;20.08;71.03;98703.47;5196273;27;41867;-84
2023/08/05 06:34:50;;;;;;;1.93;0.80;;;;;;;20.32;70.37;98717.03;5177282;27;41973;-85
2023/08/05 06:37:18;;;;;;;1.43;0.80;;;;;;;20.48;69.74;98707.41;5159843;27;41741;-84
2023/08/05 06:39:46;;;;;;;0.73;0.73;;;;;;;20.73;68.67;98699.25;5196534;27;43258;-84
2023/08/05 06:42:14;;;;;;;0.70;0.70;;;;;;;21.54;66.91;98711.16;5178017;27;40929;-83
2023/08/05 06:44:44;;;;;;;0.60;0.60;;;;;;;22.12;65.31;98716.34;5160979;27;41147;-83
2023/08/05 06:47:11;;;;;;;1.30;0.80;;;;;;;22.47;64.11;98710.50;5160832;27;44280;-83
2023/08/05 06:49:39;;;;;;;0.67;0.67;;;;;;;22.64;62.51;98694.22;5160834;27;41270;-83
2023/08/05 06:52:07;;;;;;;0.67;0.67;;;;;;;22.81;62.50;98712.91;5178224;27;40638;-84
2023/08/05 06:54:36;;;;;;;0.67;0.67;;;;;;;22.76;61.26;98717.13;5160691;27;40736;-83
2023/08/05 06:57:04;;;;;;;0.60;0.60;;;;;;;22.83;61.38;98715.44;5177426;27;41658;-84
2023/08/05 06:59:33;;;;;;;0.70;0.70;;;;;;;22.89;61.06;98723.66;5178569;27;42330;-83
2023/08/05 07:02:01;;;;;;;0.63;0.60;;;;;;;22.86;61.23;98694.31;5160508;27;39947;-84
2023/08/05 07:04:29;;;;;;;0.50;0.50;;;;;;;22.87;60.95;98695.97;5160836;27;40675;-83
2023/08/05 07:06:57;;;;;;;0.70;0.70;;;;;;;22.95;60.31;98708.59;5196307;27;43818;-83
2023/08/05 07:09:24;;;;;;;0.40;0.40;;;;;;;23.00;60.01;98703.50;5177013;27;41494;-82
2023/08/05 07:11:54;;;;;;;0.53;0.53;;;;;;;22.87;59.87;98682.47;5158820;27;40240;-83
2023/08/05 07:14:22;;;;;;;1.00;0.80;;;;;;;23.07;58.29;98701.78;5158535;27;42167;-83
2023/08/05 07:16:49;;;;;;;0.70;0.70;;;;;;;23.19;58.23;98704.91;5176373;27;43768;-84
2023/08/05 07:19:17;;;;;;;0.60;0.60;;;;;;;23.22;57.90;98694.59;5176718;27;42452;-84
2023/08/05 07:21:47;;;;;;;0.80;0.80;;;;;;;23.19;58.05;98677.88;5159036;27;40644;-83
2023/08/05 07:24:14;;;;;;;1.03;0.50;;;;;;;23.42;57.31;98700.34;5158996;27;40247;-84
2023/08/05 07:26:44;;;;;;;1.50;0.60;;;;;;;23.46;56.37;98711.63;5158826;27;44158;-84
2023/08/05 07:29:13;;;;;;;0.60;0.60;;;;;;;23.43;57.74;98680.41;5158808;27;42296;-85
2023/08/05 07:31:40;;;;;;;0.60;0.60;;;;;;;23.67;57.84;98697.44;5159272;27;40015;-85
2023/08/05 07:34:09;;;;;;;0.50;0.50;;;;;;;23.77;55.92;98719.66;5159306;27;40611;-84
2023/08/05 07:36:37;;;;;;;0.60;0.60;;;;;;;23.68;55.81;98709.94;5159039;27;41913;-85
2023/08/05 07:39:07;;;;;;;0.63;0.63;;;;;;;23.68;55.93;98707.25;5158894;27;41300;-86
2023/08/05 07:41:36;;;;;;;0.60;0.60;;;;;;;23.77;55.53;98720.50;5160166;27;39829;-85
2023/08/05 07:44:03;;;;;;;0.40;0.40;;;;;;;23.74;56.39;98695.72;5160160;27;41735;-84
2023/08/05 07:46:35;;;;;;;0.50;0.50;;;;;;;23.94;56.52;98700.41;5160063;27;41743;-84
2023/08/05 07:49:03;;;;;;;0.73;0.73;;;;;;;24.07;55.85;98688.09;5177905;27;42258;-86
2023/08/05 07:51:31;;;;;;;0.40;0.40;;;;;;;24.43;55.68;98689.06;5159808;27;40035;-83
2023/08/05 07:53:59;;;;;;;0.60;0.60;;;;;;;24.95;54.04;98704.31;5160238;27;40787;-87
2023/08/05 07:56:25;;;;;;;0.50;0.50;;;;;;;25.23;51.70;98685.41;5157605;27;41748;-85
2023/08/05 07:58:53;;;;;;;0.93;0.70;;;;;;;25.61;51.78;98694.16;5158724;27;41512;-84
2023/08/05 08:01:22;;;;;;;0.53;0.53;;;;;;;25.83;50.95;98693.09;5158339;27;39810;-86
2023/08/05 08:03:53;;;;;;;0.50;0.50;;;;;;;26.00;50.11;98715.34;5158515;27;40769;-84
2023/08/05 08:06:21;;;;;;;0.63;0.63;;;;;;;25.83;48.48;98708.53;5158910;27;43267;-85
2023/08/05 08:08:48;;;;;;;0.50;0.50;;;;;;;26.01;48.63;98711.59;5176780;27;42760;-84
2023/08/05 08:11:17;;;;;;;0.50;0.50;;;;;;;26.59;49.47;98707.56;5159355;27;39783;-85
2023/08/05 08:13:44;;;;;;;0.50;0.50;;;;;;;27.18;49.16;98704.28;5159924;27;41035;-87
2023/08/05 08:16:13;;;;;;;0.60;0.60;;;;;;;27.60;47.07;98716.72;5158268;27;43157;-84
2023/08/05 08:18:41;;;;;;;0.47;0.40;;;;;;;27.62;47.42;98717.34;5176321;27;41712;-85
2023/08/05 08:21:10;;;;;;;0.70;0.70;;;;;;;27.16;45.60;98744.44;5175820;27;39738;-86
2023/08/05 08:23:37;;;;;;;0.40;0.40;;;;;;;27.08;46.65;98722.84;5176099;27;41874;-87
2023/08/05 08:26:05;;;;;;;0.50;0.50;;;;;;;27.27;47.60;98713.91;5159032;27;41701;-87
2023/08/05 08:28:32;;;;;;;0.50;0.50;;;;;;;27.68;45.97;98718.41;5162268;27;42338;-87
2023/08/05 08:31:00;;;;;;;0.53;0.53;;;;;;;27.44;45.29;98726.09;5179340;27;40011;-86
2023/08/05 08:33:28;;;;;;;0.43;0.43;;;;;;;27.33;45.07;98723.97;5162094;27;42082;-87
2023/08/05 08:35:55;;;;;;;0.60;0.60;;;;;;;27.39;43.33;98747.63;5162390;27;43231;-86
2023/08/05 08:38:25;;;;;;;0.50;0.50;;;;;;;27.98;44.12;98711.47;5161577;27;41770;-86
2023/08/05 08:40:53;;;;;;;0.90;0.63;;;;;;;28.28;43.98;98722.78;5179731;27;41097;-84
2023/08/05 08:43:22;;;;;;;0.50;0.50;;;;;;;28.70;43.07;98731.47;5163048;27;40554;-86
2023/08/05 08:45:52;;;;;;;0.50;0.50;;;;;;;29.38;41.22;98740.88;5163270;27;42842;-85
2023/08/05 08:48:21;;;;;;;0.50;0.50;;;;;;;30.19;40.32;98738.16;5163354;27;41060;-86
2023/08/05 08:50:49;;;;;;;1.03;0.73;;;;;;;30.69;38.66;98735.34;5180534;27;40637;-87
2023/08/05 08:53:17;;;;;;;0.50;0.50;;;;;;;31.15;37.48;98740.28;5180479;27;42466;-85
2023/08/05 08:55:47;;;;;;;0.53;0.50;;;;;;;31.47;37.17;98724.47;5162678;27;43046;-86
2023/08/05 08:58:15;;;;;;;0.50;0.50;;;;;;;31.99;36.76;98760.34;5162836;27;41629;-84
2023/08/05 09:00:43;;;;;;;0.50;0.50;;;;;;;32.32;36.08;98766.09;5162407;27;39883;-86
2023/08/05 09:03:11;;;;;;;1.23;0.40;;;;;;;32.32;34.86;98771.59;5163014;27;40461;-86
2023/08/05 09:05:42;;;;;;;0.50;0.50;;;;;;;32.14;36.39;98736.06;5162180;27;41561;-84
2023/08/05 09:08:10;;;;;;;0.70;0.70;;;;;;;32.14;36.36;98744.28;5162430;27;42783;-84
2023/08/05 09:10:38;;;;;;;0.50;0.50;;;;;;;32.24;35.31;98741.81;5160397;27;40879;-82
2023/08/05 09:13:08;;;;;;;0.50;0.50;;;;;;;32.51;33.76;98763.25;5178602;27;41577;-82
2023/08/05 09:15:38;;;;;;;0.60;0.60;;;;;;;32.67;32.97;98768.00;5160688;27;42707;-83
2023/08/05 09:18:08;;;;;;;0.43;0.43;;;;;;;33.35;32.86;98767.28;5160883;27;41489;-83
2023/08/05 09:20:36;;;;;;;0.68;0.60;;;;;;;34.61;30.00;98778.84;5178089;27;39976;-83
2023/08/05 09:23:06;;;;;;;0.50;0.50;;;;;;;34.40;29.70;98786.78;5177979;27;41709;-81
2023/08/05 09:25:39;;;;;;;0.80;0.60;;;;;;;33.96;31.12;98771.19;5196426;27;42693;-80
2023/08/05 09:28:09;;;;;;;0.38;0.38;;;;;;;34.71;30.49;98773.47;5177911;27;41425;-82
2023/08/05 09:30:36;;;;;;;0.60;0.50;;;;;;;33.79;31.05;98771.16;5160542;27;40933;-82
2023/08/05 09:33:04;;;;;;;0.77;0.60;;;;;;;32.83;32.66;98762.63;5160519;27;40725;-82
2023/08/05 09:35:32;;;;;;;0.80;0.80;;;;;;;32.10;33.49;98751.28;5178048;27;41949;-84
2023/08/05 09:38:01;;;;;;;0.50;0.50;;;;;;;31.50;35.10;98734.94;5176761;27;41437;-83
2023/08/05 09:40:32;;;;;;;0.60;0.60;;;;;;;31.11;35.32;98724.56;5161249;27;40100;-85
2023/08/05 09:43:02;;;;;;;0.70;0.70;;;;;;;31.58;34.41;98737.34;5176249;27;41947;-85
2023/08/05 09:45:32;;;;;;;0.50;0.50;;;;;;;31.13;34.27;98727.91;5161690;27;42759;-85
2023/08/05 09:48:03;;;;;;;0.40;0.40;;;;;;;30.52;34.54;98729.63;5179332;27;43560;-85
2023/08/05 09:50:32;;;;;;;0.77;0.77;;;;;;;30.19;35.17;98732.69;5161519;27;40280;-84
2023/08/05 09:53:01;;;;;;;0.50;0.50;;;;;;;29.91;36.74;98716.75;5197732;27;41788;-84
2023/08/05 09:55:29;;;;;;;0.57;0.50;;;;;;;30.57;36.07;98697.00;5161249;27;42292;-84
2023/08/05 09:57:57;;;;;;;2.43;0.83;;;;;;;31.42;37.03;98699.69;5161567;27;43492;-85
2023/08/05 10:00:27;;;;;;;0.50;0.50;;;;;;;31.45;35.56;98688.28;5161434;27;39651;-84
2023/08/05 10:02:56;;;;;;;0.43;0.43;;;;;;;31.33;35.66;98712.03;5161910;27;40659;-86
2023/08/05 10:05:26;;;;;;;0.70;0.60;;;;;;;31.35;36.77;98686.09;5161547;27;43068;-84
2023/08/05 10:07:54;;;;;;;1.33;1.23;;;;;;;31.98;36.04;98701.13;5161335;27;41429;-84
2023/08/05 10:10:22;;;;;;;0.50;0.50;;;;;;;32.70;35.06;98685.22;5159733;27;40328;-83
2023/08/05 10:12:53;;;;;;;0.60;0.60;;;;;;;33.67;32.71;98708.00;5196665;27;41778;-85
2023/08/05 10:15:26;;;;;;;0.93;0.60;;;;;;;33.28;32.73;98700.69;5161668;27;41722;-82
2023/08/05 10:17:53;;;;;;;0.40;0.40;;;;;;;32.54;32.54;98708.75;5160817;27;42067;-82
2023/08/05 10:20:23;;;;;;;0.53;0.50;;;;;;;31.81;33.90;98691.94;5178401;27;40208;-84
2023/08/05 10:23:14;;;;;;;0.50;0.50;;;;;;;31.13;34.12;98698.66;5160399;27;41846;-83
2023/08/05 10:25:44;;;;;;;0.73;0.70;;;;;;;30.47;34.53;98680.28;5173624;27;43287;-83
2023/08/05 10:28:42;;;;;;;0.60;0.60;;;;;;;30.10;35.89;98684.88;5160247;27;42500;-83
2023/08/05 10:31:28;;;;;;;0.70;0.50;;;;;;;29.61;36.38;98663.88;5159996;27;39741;-82
2023/08/05 10:34:09;;;;;;;1.07;0.60;;;;;;;29.44;37.02;98665.47;5159604;27;42525;-84
2023/08/05 10:36:49;;;;;;;0.50;0.50;;;;;;;29.29;38.52;98661.16;5177723;27;42020;-84
2023/08/05 10:39:44;;;;;;;0.60;0.60;;;;;;;29.20;38.62;98661.63;5159683;27;41569;-84
2023/08/05 10:42:31;;;;;;;0.60;0.60;;;;;;;29.18;39.69;98631.00;5178246;27;40736;-83
2023/08/05 10:44:59;;;;;;;0.80;0.63;;;;;;;29.44;38.10;98640.91;5178274;27;42183;-83
2023/08/05 10:47:27;;;;;;;0.57;0.50;;;;;;;29.66;37.31;98634.03;5178200;27;42756;-82
2023/08/05 10:49:59;;;;;;;0.50;0.50;;;;;;;29.99;37.43;98655.59;5178003;27;42299;-82
2023/08/05 10:52:30;;;;;;;0.70;0.70;;;;;;;30.20;35.42;98662.50;5160252;27;40728;-83
2023/08/05 10:54:58;;;;;;;0.70;0.70;;;;;;;30.76;35.35;98656.84;5173149;27;41707;-83
2023/08/05 10:57:29;;;;;;;0.63;0.63;;;;;;;31.30;34.75;98658.59;5176371;27;41450;-83
2023/08/05 11:00:00;;;;;;;0.73;0.73;;;;;;;31.40;34.72;98658.84;5159626;27;41652;-82
2023/08/05 11:02:27;;;;;;;0.60;0.60;;;;;;;31.48;35.25;98644.00;5177593;27;40115;-82
2023/08/05 11:05:06;;;;;;;0.53;0.53;;;;;;;31.53;34.51;98641.38;5177017;27;43153;-82
2023/08/05 11:07:37;;;;;;;0.50;0.50;;;;;;;31.69;34.34;98646.19;5176562;27;43130;-83
2023/08/05 11:10:06;;;;;;;0.60;0.60;;;;;;;31.86;34.02;98653.72;5159573;27;42265;-83
2023/08/05 11:12:33;;;;;;;0.70;0.70;;;;;;;31.74;34.06;98613.47;5158589;27;39558;-84
2023/08/05 11:15:01;;;;;;;0.70;0.70;;;;;;;31.96;33.73;98629.31;5176980;27;42632;-83
2023/08/05 11:17:29;;;;;;;0.70;0.70;;;;;;;32.26;33.71;98640.16;5176257;27;42283;-84
2023/08/05 11:19:58;;;;;;;0.60;0.60;;;;;;;32.63;34.08;98632.44;5159184;27;40906;-83
2023/08/05 11:22:26;;;;;;;0.73;0.67;;;;;;;33.79;33.32;98623.63;5176383;27;41042;-83
2023/08/05 11:25:00;;;;;;;0.53;0.53;;;;;;;35.47;32.63;98623.81;5159000;27;41840;-79
2023/08/05 11:27:33;;;;;;;0.50;0.50;;;;;;;36.34;29.77;98650.13;5158093;27;42311;-82
2023/08/05 11:30:11;;;;;;;0.88;0.77;;;;;;;36.24;28.29;98645.34;5179181;27;42338;-84
2023/08/05 11:32:49;;;;;;;0.70;0.70;;;;;;;36.41;28.09;98641.59;5161176;27;40086;-83
2023/08/05 11:35:17;;;;;;;0.80;0.80;;;;;;;36.51;27.48;98661.78;5152738;27;40595;-83
2023/08/05 11:37:45;;;;;;;0.83;0.83;;;;;;;36.24;27.99;98639.00;5154863;27;41707;-82
2023/08/05 11:40:14;;;;;;;0.50;0.50;;;;;;;36.39;28.95;98625.31;5154495;27;42484;-83
2023/08/05 11:42:41;;;;;;;2.80;0.70;;;;;;;36.43;29.98;98601.59;5137584;27;41459;-83